Time,TemperatureF,DewpointF,PressureIn,WindDirection,WindDirectionDegrees,WindSpeedMPH,WindSpeedGustMPH,Humidity,HourlyPrecipIn,Conditions,Clouds,dailyrainin,SolarRadiationWatts/m^2,SoftwareType,DateUTC
2013-01-08 00:00:00,47.6,45.7,30.00,SW,226,0.0,0.0,93,0.02,CLR,,0.22,0.0,WeatherDisplay:10.37,2013-01-08 00:00:00,
2013-01-08 00:05:00,47.6,45.7,30.00,SW,227,0.0,0.0,93,0.02,RA,,0.00,0.0,WeatherDisplay:10.37,2013-01-08 00:05:00,
2013-01-08 00:10:00,47.7,45.8,30.01,SW,227,0.0,0.0,93,0.02,RA,,0.01,0.0,WeatherDisplay:10.37,2013-01-08 00:10:00,
2013-01-08 00:15:00,47.7,45.8,30.00,SW,227,2.3,2.3,93,0.02,RA,,0.01,0.0,WeatherDisplay:10.37,2013-01-08 00:15:00,
2013-01-08 00:20:00,47.8,45.9,30.00,SW,226,0.0,0.0,93,0.02,CLR,,0.01,0.0,WeatherDisplay:10.37,2013-01-08 00:20:00,
2013-01-08 00:25:00,47.9,46.3,30.00,SW,226,0.0,0.0,94,0.02,CLR,,0.01,0.0,WeatherDisplay:10.37,2013-01-08 00:25:00,
2013-01-08 00:30:00,47.9,46.3,30.00,SW,226,0.0,0.0,94,0.01,CLR,,0.01,0.0,WeatherDisplay:10.37,2013-01-08 00:30:00,
2013-01-08 00:35:00,47.9,46.3,30.00,SW,227,0.0,0.0,94,0.01,CLR,,0.01,0.0,WeatherDisplay:10.37,2013-01-08 00:35:00,
2013-01-08 00:40:00,47.9,46.0,30.00,SW,226,0.0,0.0,93,0.02,RA,,0.02,0.0,WeatherDisplay:10.37,2013-01-08 00:40:00,
2013-01-08 00:45:00,47.8,45.9,30.00,SW,226,0.0,0.0,93,0.02,RA,,0.02,0.0,WeatherDisplay:10.37,2013-01-08 00:45:00,
2013-01-08 00:50:00,47.8,45.9,30.00,SW,226,0.0,0.0,93,0.02,CLR,,0.02,0.0,WeatherDisplay:10.37,2013-01-08 00:50:00,
2013-01-08 00:55:00,47.8,45.9,30.00,SW,226,0.0,0.0,93,0.02,CLR,,0.02,0.0,WeatherDisplay:10.37,2013-01-08 00:55:00,
2013-01-08 01:00:00,47.7,45.8,30.00,SW,226,0.0,0.0,93,0.02,CLR,,0.02,0.0,WeatherDisplay:10.37,2013-01-08 01:00:00,
2013-01-08 01:05:00,47.7,45.8,30.00,SW,227,0.0,0.0,93,0.02,CLR,,0.02,0.0,WeatherDisplay:10.37,2013-01-08 01:05:00,
2013-01-08 01:10:00,47.7,45.8,30.00,SW,226,0.0,0.0,93,0.01,CLR,,0.02,0.0,WeatherDisplay:10.37,2013-01-08 01:10:00,
2013-01-08 01:15:00,47.7,45.8,29.99,SW,226,0.0,0.0,93,0.01,CLR,,0.02,0.0,WeatherDisplay:10.37,2013-01-08 01:15:00,
2013-01-08 01:20:00,47.7,45.8,29.99,SW,226,0.0,0.0,93,0.01,CLR,,0.02,0.0,WeatherDisplay:10.37,2013-01-08 01:20:00,
2013-01-08 01:25:00,47.7,45.8,29.99,SW,226,0.0,0.0,93,0.01,CLR,,0.02,0.0,WeatherDisplay:10.37,2013-01-08 01:25:00,
2013-01-08 01:30:00,47.7,45.8,29.99,SW,226,0.0,0.0,93,0.01,CLR,,0.02,0.0,WeatherDisplay:10.37,2013-01-08 01:30:00,
2013-01-08 01:35:00,47.7,45.8,29.99,SW,227,0.0,0.0,93,0.01,CLR,,0.02,0.0,WeatherDisplay:10.37,2013-01-08 01:35:00,
2013-01-08 01:40:00,47.7,45.8,29.99,SW,226,0.0,0.0,93,0.00,CLR,,0.02,0.0,WeatherDisplay:10.37,2013-01-08 01:40:00,
2013-01-08 01:45:00,47.7,45.8,29.99,SW,226,0.0,0.0,93,0.00,CLR,,0.02,0.0,WeatherDisplay:10.37,2013-01-08 01:45:00,
2013-01-08 01:50:00,47.8,45.9,29.99,SW,226,0.0,0.1,93,0.00,CLR,,0.02,0.0,WeatherDisplay:10.37,2013-01-08 01:50:00,
2013-01-08 01:55:00,47.8,45.9,29.99,SW,226,0.0,0.3,93,0.00,CLR,,0.02,0.0,WeatherDisplay:10.37,2013-01-08 01:55:00,
2013-01-08 02:00:00,47.8,46.2,29.99,SW,226,0.0,0.0,94,0.00,CLR,,0.02,0.0,WeatherDisplay:10.37,2013-01-08 02:00:00,
2013-01-08 02:05:00,47.8,46.2,29.99,SW,216,5.8,5.8,94,0.00,CLR,,0.02,0.0,WeatherDisplay:10.37,2013-01-08 02:05:00,
2013-01-08 02:10:00,47.9,46.3,29.99,SSW,198,4.6,4.6,94,0.00,CLR,,0.02,0.0,WeatherDisplay:10.37,2013-01-08 02:10:00,
2013-01-08 02:15:00,47.9,46.3,29.98,South,176,3.5,3.5,94,0.00,CLR,,0.02,0.0,WeatherDisplay:10.37,2013-01-08 02:15:00,
2013-01-08 02:20:00,48.0,46.4,29.98,South,177,3.5,3.5,94,0.00,CLR,,0.02,0.0,WeatherDisplay:10.37,2013-01-08 02:20:00,
2013-01-08 02:25:00,48.0,46.4,29.99,South,176,3.5,3.5,94,0.00,CLR,,0.02,0.0,WeatherDisplay:10.37,2013-01-08 02:25:00,
2013-01-08 02:30:00,48.0,46.4,29.99,SW,223,4.6,4.6,94,0.00,CLR,,0.02,0.0,WeatherDisplay:10.37,2013-01-08 02:30:00,
2013-01-08 02:35:00,48.0,46.4,29.99,SW,222,2.3,2.3,94,0.00,CLR,,0.02,0.0,WeatherDisplay:10.37,2013-01-08 02:35:00,
2013-01-08 02:40:00,48.1,46.5,29.99,SW,222,2.3,0.0,94,0.00,CLR,,0.02,0.0,WeatherDisplay:10.37,2013-01-08 02:40:00,
2013-01-08 02:45:00,48.1,46.5,29.98,SW,223,2.3,2.3,94,0.00,CLR,,0.02,0.0,WeatherDisplay:10.37,2013-01-08 02:45:00,
2013-01-08 02:50:00,48.1,46.5,29.99,SW,223,3.5,3.5,94,0.00,CLR,,0.02,0.0,WeatherDisplay:10.37,2013-01-08 02:50:00,
2013-01-08 02:55:00,48.1,46.5,29.98,SW,222,1.1,1.1,94,0.00,CLR,,0.02,0.0,WeatherDisplay:10.37,2013-01-08 02:55:00,
2013-01-08 03:00:00,48.1,46.5,29.98,SW,223,3.0,3.0,94,0.00,CLR,,0.02,0.0,WeatherDisplay:10.37,2013-01-08 03:00:00,
2013-01-08 03:05:00,48.1,46.5,29.98,SW,219,3.5,3.5,94,0.00,CLR,,0.02,0.0,WeatherDisplay:10.37,2013-01-08 03:05:00,
2013-01-08 03:10:00,48.1,46.5,29.98,SW,218,2.3,0.0,94,0.01,RA,,0.02,0.0,WeatherDisplay:10.37,2013-01-08 03:10:00,
2013-01-08 03:15:00,48.2,46.6,29.98,SSE,155,3.5,3.5,94,0.01,RA,,0.02,0.0,WeatherDisplay:10.37,2013-01-08 03:15:00,
2013-01-08 03:20:00,48.2,46.6,29.98,South,185,3.5,3.5,94,0.01,CLR,,0.02,0.0,WeatherDisplay:10.37,2013-01-08 03:20:00,
2013-01-08 03:25:00,48.2,46.6,29.97,SSW,195,10.4,10.4,94,0.01,CLR,,0.02,0.0,WeatherDisplay:10.37,2013-01-08 03:25:00,
2013-01-08 03:31:00,48.2,46.6,29.97,South,180,6.9,6.9,94,0.01,CLR,,0.02,0.0,WeatherDisplay:10.37,2013-01-08 03:31:00,
2013-01-08 03:36:00,48.2,46.6,29.97,SE,140,4.6,4.6,94,0.01,CLR,,0.02,0.0,WeatherDisplay:10.37,2013-01-08 03:36:00,
2013-01-08 03:41:00,48.2,46.6,29.97,South,186,5.0,5.0,94,0.01,CLR,,0.02,0.0,WeatherDisplay:10.37,2013-01-08 03:41:00,
2013-01-08 03:46:00,48.2,46.6,29.97,SE,145,4.6,4.6,94,0.01,CLR,,0.02,0.0,WeatherDisplay:10.37,2013-01-08 03:46:00,
2013-01-08 03:51:00,48.2,46.6,29.97,SSE,164,4.6,4.6,94,0.01,CLR,,0.02,0.0,WeatherDisplay:10.37,2013-01-08 03:51:00,
2013-01-08 03:56:00,48.2,46.6,29.97,SSE,164,2.0,2.0,94,0.01,CLR,,0.02,0.0,WeatherDisplay:10.37,2013-01-08 03:56:00,
2013-01-08 04:01:00,48.3,46.7,29.97,SSE,162,0.0,0.0,94,0.02,RA,,0.03,0.0,WeatherDisplay:10.37,2013-01-08 04:01:00,
2013-01-08 04:06:00,48.2,46.6,29.96,SSE,161,0.0,0.0,94,0.02,RA,,0.03,0.0,WeatherDisplay:10.37,2013-01-08 04:06:00,
2013-01-08 04:11:00,48.2,46.6,29.96,SSE,161,3.5,3.5,94,0.01,CLR,,0.03,0.0,WeatherDisplay:10.37,2013-01-08 04:11:00,
2013-01-08 04:16:00,48.3,46.7,29.96,SSE,161,0.0,0.0,94,0.01,CLR,,0.03,0.0,WeatherDisplay:10.37,2013-01-08 04:16:00,
2013-01-08 04:21:00,48.2,46.6,29.96,SSE,161,0.0,0.0,94,0.01,CLR,,0.03,0.0,WeatherDisplay:10.37,2013-01-08 04:21:00,
2013-01-08 04:26:00,48.2,46.3,29.96,SSE,161,0.0,0.0,93,0.01,CLR,,0.03,0.0,WeatherDisplay:10.37,2013-01-08 04:26:00,
2013-01-08 04:31:00,48.2,46.3,29.96,SSE,161,0.0,0.0,93,0.01,CLR,,0.03,0.0,WeatherDisplay:10.37,2013-01-08 04:31:00,
2013-01-08 04:36:00,48.1,46.2,29.96,SSE,161,0.0,0.0,93,0.01,CLR,,0.03,0.0,WeatherDisplay:10.37,2013-01-08 04:36:00,
2013-01-08 04:41:00,48.1,46.2,29.96,SSE,161,0.0,0.0,93,0.01,CLR,,0.03,0.0,WeatherDisplay:10.37,2013-01-08 04:41:00,
2013-01-08 04:46:00,48.0,46.1,29.96,SSE,161,0.0,0.0,93,0.01,CLR,,0.03,0.0,WeatherDisplay:10.37,2013-01-08 04:46:00,
2013-01-08 04:51:00,48.0,46.1,29.95,SSE,161,0.0,0.0,93,0.02,RA,,0.04,0.0,WeatherDisplay:10.37,2013-01-08 04:51:00,
2013-01-08 04:56:00,48.0,46.4,29.95,SSE,161,0.0,0.0,94,0.02,RA,,0.04,0.0,WeatherDisplay:10.37,2013-01-08 04:56:00,
2013-01-08 05:00:00,48.0,46.4,29.95,SSE,161,2.3,2.3,94,0.01,RA,,0.04,0.0,WeatherDisplay:10.37,2013-01-08 05:00:00,
2013-01-08 05:01:00,48.0,46.4,29.95,SSE,161,3.5,3.5,94,0.01,,,0.04,0.0,WeatherDisplay:10.37,2013-01-08 05:01:00,
2013-01-08 05:03:00,48.0,46.4,29.95,SSE,161,3.5,3.5,94,0.01,CLR,,0.04,0.0,WeatherDisplay:10.37,2013-01-08 05:03:00,
2013-01-08 05:08:00,48.0,46.4,29.95,SSE,160,3.5,3.5,94,0.02,RA,,0.05,0.0,WeatherDisplay:10.37,2013-01-08 05:08:00,
2013-01-08 05:13:00,48.2,46.6,29.95,SSW,200,9.2,9.2,94,0.02,RA,,0.06,0.0,WeatherDisplay:10.37,2013-01-08 05:13:00,
2013-01-08 05:18:00,48.4,46.8,29.95,SW,228,6.9,6.9,94,0.02,RA,,0.06,0.0,WeatherDisplay:10.37,2013-01-08 05:18:00,
2013-01-08 05:23:00,48.5,46.9,29.95,SW,229,4.0,4.0,94,0.03,RA,,0.06,0.0,WeatherDisplay:10.37,2013-01-08 05:23:00,
2013-01-08 05:28:00,48.6,47.0,29.95,SSW,205,2.3,2.3,94,0.04,RA,,0.07,0.0,WeatherDisplay:10.37,2013-01-08 05:28:00,
2013-01-08 05:33:00,48.6,47.0,29.95,SW,214,3.5,3.5,94,0.05,RA,,0.08,0.0,WeatherDisplay:10.37,2013-01-08 05:33:00,
2013-01-08 05:38:00,48.6,47.0,29.95,SSW,208,5.8,5.8,94,0.05,RA,,0.09,0.0,WeatherDisplay:10.37,2013-01-08 05:38:00,
2013-01-08 05:43:00,48.7,47.1,29.95,SW,233,4.6,4.6,94,0.06,RA,,0.09,0.0,WeatherDisplay:10.37,2013-01-08 05:43:00,
2013-01-08 05:48:00,48.7,47.1,29.95,SW,218,10.4,10.4,94,0.06,RA,,0.09,0.0,WeatherDisplay:10.37,2013-01-08 05:48:00,
2013-01-08 05:53:00,48.8,47.2,29.95,WSW,242,11.5,11.5,94,0.06,,,0.09,0.0,WeatherDisplay:10.37,2013-01-08 05:53:00,
2013-01-08 05:58:00,48.8,47.2,29.95,SSW,205,10.4,10.4,94,0.06,CLR,,0.09,0.0,WeatherDisplay:10.37,2013-01-08 05:58:00,
2013-01-08 06:03:00,48.9,47.2,29.95,SSW,193,16.1,16.1,94,0.06,RA,,0.10,0.0,WeatherDisplay:10.37,2013-01-08 06:03:00,
2013-01-08 06:08:00,49.0,47.1,29.95,South,173,13.8,13.8,93,0.06,RA,,0.10,0.0,WeatherDisplay:10.37,2013-01-08 06:08:00,
2013-01-08 06:13:00,49.0,47.1,29.95,SSW,212,16.1,16.1,93,0.06,CLR,,0.10,0.0,WeatherDisplay:10.37,2013-01-08 06:13:00,
2013-01-08 06:18:00,49.1,47.2,29.94,SW,217,12.7,12.7,93,0.05,CLR,,0.10,0.0,WeatherDisplay:10.37,2013-01-08 06:18:00,
2013-01-08 06:23:00,49.1,47.2,29.94,SSW,211,11.5,11.5,93,0.04,CLR,,0.10,0.0,WeatherDisplay:10.37,2013-01-08 06:23:00,
2013-01-08 06:28:00,49.1,47.2,29.94,South,189,15.0,15.0,93,0.03,CLR,,0.10,0.0,WeatherDisplay:10.37,2013-01-08 06:28:00,
2013-01-08 06:33:00,49.1,47.2,29.94,South,184,13.0,13.0,93,0.02,CLR,,0.10,0.0,WeatherDisplay:10.37,2013-01-08 06:33:00,
2013-01-08 06:38:00,49.1,47.2,29.94,SW,223,10.4,10.4,93,0.02,CLR,,0.10,0.0,WeatherDisplay:10.37,2013-01-08 06:38:00,
2013-01-08 06:43:00,49.1,46.9,29.93,South,189,11.5,11.5,92,0.01,CLR,,0.10,0.0,WeatherDisplay:10.37,2013-01-08 06:43:00,
2013-01-08 06:49:00,49.1,46.9,29.93,South,182,12.7,12.7,92,0.02,RA,,0.11,0.0,WeatherDisplay:10.37,2013-01-08 06:49:00,
2013-01-08 06:54:00,49.1,46.9,29.93,SE,128,16.1,16.1,92,0.02,RA,,0.11,0.0,WeatherDisplay:10.37,2013-01-08 06:54:00,
2013-01-08 06:59:00,49.1,46.9,29.93,South,178,13.8,13.8,92,0.02,,,0.11,0.0,WeatherDisplay:10.37,2013-01-08 06:59:00,
2013-01-08 07:04:00,49.1,46.9,29.93,WSW,248,12.7,12.7,92,0.01,CLR,,0.11,0.0,WeatherDisplay:10.37,2013-01-08 07:04:00,
2013-01-08 07:09:00,49.1,46.9,29.94,SW,221,11.5,11.5,92,0.01,CLR,,0.11,0.0,WeatherDisplay:10.37,2013-01-08 07:09:00,
2013-01-08 07:14:00,49.1,46.9,29.94,South,169,13.8,13.8,92,0.01,CLR,,0.11,0.0,WeatherDisplay:10.37,2013-01-08 07:14:00,
2013-01-08 07:19:00,49.2,47.0,29.94,SSW,196,10.4,10.4,92,0.01,CLR,,0.11,0.0,WeatherDisplay:10.37,2013-01-08 07:19:00,
2013-01-08 07:24:00,49.3,47.1,29.95,South,183,11.5,11.5,92,0.01,CLR,,0.11,0.0,WeatherDisplay:10.37,2013-01-08 07:24:00,
2013-01-08 07:29:00,49.3,47.1,29.95,SSW,199,12.7,12.7,92,0.01,CLR,,0.11,0.0,WeatherDisplay:10.37,2013-01-08 07:29:00,
2013-01-08 07:34:00,49.4,47.2,29.95,SW,226,15.0,15.0,92,0.01,CLR,,0.11,0.0,WeatherDisplay:10.37,2013-01-08 07:34:00,
2013-01-08 07:39:00,49.4,47.2,29.94,South,178,15.0,15.0,92,0.01,CLR,,0.11,0.0,WeatherDisplay:10.37,2013-01-08 07:39:00,
2013-01-08 07:44:00,49.5,47.3,29.95,SSW,210,10.4,10.4,92,0.01,CLR,,0.11,0.0,WeatherDisplay:10.37,2013-01-08 07:44:00,
2013-01-08 07:49:00,49.4,47.2,29.95,SW,215,11.5,11.5,92,0.00,CLR,,0.11,0.0,WeatherDisplay:10.37,2013-01-08 07:49:00,
2013-01-08 07:54:00,49.5,47.3,29.95,SW,219,11.5,11.5,92,0.00,CLR,,0.11,0.0,WeatherDisplay:10.37,2013-01-08 07:54:00,
2013-01-08 07:59:00,49.5,47.3,29.95,SSW,194,10.4,10.4,92,0.00,CLR,,0.11,0.0,WeatherDisplay:10.37,2013-01-08 07:59:00,
2013-01-08 08:04:00,49.6,47.4,29.95,SW,236,11.5,11.5,92,0.00,CLR,,0.11,0.0,WeatherDisplay:10.37,2013-01-08 08:04:00,
2013-01-08 08:09:00,49.8,47.6,29.95,South,181,13.8,13.8,92,0.00,CLR,,0.11,0.0,WeatherDisplay:10.37,2013-01-08 08:09:00,
2013-01-08 08:14:00,49.9,47.7,29.95,South,175,17.3,17.3,92,0.00,OVC,,0.11,0.0,WeatherDisplay:10.37,2013-01-08 08:14:00,
2013-01-08 08:19:00,50.1,47.9,29.95,SW,222,16.0,16.0,92,0.00,OVC,,0.11,0.0,WeatherDisplay:10.37,2013-01-08 08:19:00,
2013-01-08 08:24:00,50.3,48.1,29.95,WSW,252,16.1,16.1,92,0.00,OVC,,0.11,0.0,WeatherDisplay:10.37,2013-01-08 08:24:00,
2013-01-08 08:29:00,50.5,48.3,29.95,SW,233,15.0,15.0,92,0.00,OVC,,0.11,0.0,WeatherDisplay:10.37,2013-01-08 08:29:00,
2013-01-08 08:34:00,50.6,48.1,29.95,SW,236,16.1,16.1,91,0.00,OVC,,0.11,0.0,WeatherDisplay:10.37,2013-01-08 08:34:00,
2013-01-08 08:39:00,50.7,48.2,29.95,WSW,244,15.0,15.0,91,0.00,OVC,,0.11,0.0,WeatherDisplay:10.37,2013-01-08 08:39:00,
2013-01-08 08:44:00,50.9,48.4,29.95,SW,225,17.3,17.3,91,0.00,OVC,,0.11,0.0,WeatherDisplay:10.37,2013-01-08 08:44:00,
2013-01-08 08:49:00,51.0,48.5,29.96,SSW,210,13.8,13.8,91,0.00,OVC,,0.11,0.0,WeatherDisplay:10.37,2013-01-08 08:49:00,
2013-01-08 08:54:00,51.0,48.5,29.95,SW,218,12.0,12.0,91,0.00,OVC,,0.11,0.0,WeatherDisplay:10.37,2013-01-08 08:54:00,
2013-01-08 08:59:00,51.1,48.6,29.95,SW,233,12.7,12.7,91,0.00,OVC,,0.11,0.0,WeatherDisplay:10.37,2013-01-08 08:59:00,
2013-01-08 09:04:00,51.1,48.6,29.96,South,175,15.0,15.0,91,0.00,OVC,,0.11,0.0,WeatherDisplay:10.37,2013-01-08 09:04:00,
2013-01-08 09:09:00,51.1,48.6,29.96,SW,227,18.4,18.4,91,0.00,BKN,,0.11,7.0,WeatherDisplay:10.37,2013-01-08 09:09:00,
2013-01-08 09:14:00,51.1,48.6,29.96,SW,232,16.1,16.1,91,0.00,BKN,,0.11,9.0,WeatherDisplay:10.37,2013-01-08 09:14:00,
2013-01-08 09:19:00,51.1,48.6,29.96,WSW,240,13.8,13.8,91,0.00,BKN,,0.11,7.0,WeatherDisplay:10.37,2013-01-08 09:19:00,
2013-01-08 09:24:00,51.1,48.6,29.96,WSW,237,15.0,15.0,91,0.00,BKN,,0.11,9.0,WeatherDisplay:10.37,2013-01-08 09:24:00,
2013-01-08 09:29:00,51.1,48.6,29.96,SW,225,19.6,19.6,91,0.00,BKN,,0.11,12.0,WeatherDisplay:10.37,2013-01-08 09:29:00,
2013-01-08 09:34:00,51.1,48.6,29.96,SW,226,13.8,13.8,91,0.00,BKN,,0.11,12.0,WeatherDisplay:10.37,2013-01-08 09:34:00,
2013-01-08 09:39:00,51.2,48.7,29.97,SW,217,14.0,14.0,91,0.00,BKN,,0.11,12.0,WeatherDisplay:10.37,2013-01-08 09:39:00,
2013-01-08 09:44:00,51.3,48.8,29.97,SW,236,15.0,15.0,91,0.00,BKN,,0.11,16.0,WeatherDisplay:10.37,2013-01-08 09:44:00,
2013-01-08 09:49:00,51.3,48.5,29.97,WSW,244,17.3,17.3,90,0.00,BKN,,0.11,19.0,WeatherDisplay:10.37,2013-01-08 09:49:00,
2013-01-08 09:54:00,51.4,48.6,29.97,WSW,248,19.6,19.6,90,0.00,BKN,,0.11,25.0,WeatherDisplay:10.37,2013-01-08 09:54:00,
2013-01-08 09:59:00,51.5,48.4,29.98,WSW,245,19.6,19.6,89,0.00,BKN,,0.11,23.0,WeatherDisplay:10.37,2013-01-08 09:59:00,
2013-01-08 10:04:00,51.5,48.4,29.98,WSW,253,18.4,18.4,89,0.00,BKN,,0.11,32.0,WeatherDisplay:10.37,2013-01-08 10:04:00,
2013-01-08 10:09:00,51.5,48.1,29.98,SW,235,19.6,19.6,88,0.00,BKN,,0.11,42.0,WeatherDisplay:10.37,2013-01-08 10:09:00,
2013-01-08 10:14:00,51.5,48.1,29.98,WSW,238,12.7,12.7,88,0.00,SCT,,0.11,47.0,WeatherDisplay:10.37,2013-01-08 10:14:00,
2013-01-08 10:19:00,51.4,48.0,29.98,WSW,246,21.9,21.9,88,0.00,SCT,,0.11,51.0,WeatherDisplay:10.37,2013-01-08 10:19:00,
2013-01-08 10:24:00,51.3,47.9,29.99,SW,227,20.7,20.7,88,0.00,SCT,,0.11,44.0,WeatherDisplay:10.37,2013-01-08 10:24:00,
2013-01-08 10:29:00,51.3,47.9,29.99,WSW,253,19.6,19.6,88,0.00,SCT,,0.11,46.0,WeatherDisplay:10.37,2013-01-08 10:29:00,
2013-01-08 10:34:00,51.2,47.8,30.00,WSW,248,16.1,16.1,88,0.00,BKN,,0.11,49.0,WeatherDisplay:10.37,2013-01-08 10:34:00,
2013-01-08 10:39:00,51.1,48.0,30.00,WSW,247,12.7,12.7,89,0.00,BKN,,0.11,42.0,WeatherDisplay:10.37,2013-01-08 10:39:00,
2013-01-08 10:44:00,51.0,47.9,30.00,West,259,15.0,15.0,89,0.00,BKN,,0.11,19.0,WeatherDisplay:10.37,2013-01-08 10:44:00,
2013-01-08 10:49:00,50.8,47.4,30.00,West,263,25.3,25.3,88,0.00,BKN,,0.11,37.0,WeatherDisplay:10.37,2013-01-08 10:49:00,
2013-01-08 10:54:00,50.3,46.6,30.01,WSW,255,13.8,13.8,87,0.00,BKN,,0.11,51.0,WeatherDisplay:10.37,2013-01-08 10:54:00,
2013-01-08 10:59:00,49.9,46.2,30.00,West,264,15.0,15.0,87,0.00,BKN,,0.11,65.0,WeatherDisplay:10.37,2013-01-08 10:59:00,
2013-01-08 11:04:00,49.5,45.8,30.00,West,260,15.0,15.0,87,0.00,SCT,,0.11,86.0,WeatherDisplay:10.37,2013-01-08 11:04:00,
2013-01-08 11:09:00,49.3,45.6,30.00,WSW,245,12.7,12.7,87,0.00,SCT,,0.11,70.0,WeatherDisplay:10.37,2013-01-08 11:09:00,
2013-01-08 11:14:00,49.1,45.4,30.01,WNW,288,12.7,12.7,87,0.00,SCT,,0.11,65.0,WeatherDisplay:10.37,2013-01-08 11:14:00,
2013-01-08 11:19:00,48.9,45.5,30.01,West,276,15.0,15.0,88,0.00,SCT,,0.11,62.0,WeatherDisplay:10.37,2013-01-08 11:19:00,
2013-01-08 11:24:00,48.9,45.5,30.01,WSW,243,9.2,9.2,88,0.00,BKN,,0.11,53.0,WeatherDisplay:10.37,2013-01-08 11:24:00,
2013-01-08 11:29:00,48.8,45.4,30.01,SW,233,5.8,5.8,88,0.00,BKN,,0.11,74.0,WeatherDisplay:10.37,2013-01-08 11:29:00,
2013-01-08 11:34:00,48.7,45.3,30.01,West,265,5.8,5.8,88,0.00,SCT,,0.11,77.0,WeatherDisplay:10.37,2013-01-08 11:34:00,
2013-01-08 11:39:00,48.6,45.2,30.02,SW,232,12.7,12.7,88,0.00,SCT,,0.11,62.0,WeatherDisplay:10.37,2013-01-08 11:39:00,
2013-01-08 11:44:00,48.6,45.2,30.02,WSW,245,9.2,9.2,88,0.00,SCT,,0.11,72.0,WeatherDisplay:10.37,2013-01-08 11:44:00,
2013-01-08 11:49:00,48.6,45.2,30.02,SW,221,11.0,11.0,88,0.00,SCT,,0.11,79.0,WeatherDisplay:10.37,2013-01-08 11:49:00,
2013-01-08 11:54:00,48.6,45.2,30.02,WSW,248,6.0,6.0,88,0.00,SCT,,0.11,81.0,WeatherDisplay:10.37,2013-01-08 11:54:00,
2013-01-08 11:59:00,48.5,45.1,30.02,WSW,242,11.5,11.5,88,0.00,SCT,,0.11,98.0,WeatherDisplay:10.37,2013-01-08 11:59:00,
2013-01-08 12:04:00,48.6,45.2,30.02,WSW,242,6.9,6.9,88,0.00,SCT,,0.11,120.0,WeatherDisplay:10.37,2013-01-08 12:04:00,
2013-01-08 12:09:00,48.6,45.2,30.02,WSW,238,9.2,9.2,88,0.00,FEW,,0.11,130.0,WeatherDisplay:10.37,2013-01-08 12:09:00,
2013-01-08 12:14:00,48.6,44.9,30.02,SW,231,14.0,14.0,87,0.00,FEW,,0.11,118.0,WeatherDisplay:10.37,2013-01-08 12:14:00,
2013-01-08 12:19:00,48.6,44.9,30.02,WSW,245,12.7,12.7,87,0.00,SCT,,0.11,70.0,WeatherDisplay:10.37,2013-01-08 12:19:00,
2013-01-08 12:24:00,48.6,44.9,30.02,WSW,244,10.4,10.4,87,0.00,SCT,,0.11,63.0,WeatherDisplay:10.37,2013-01-08 12:24:00,
2013-01-08 12:29:00,48.5,44.5,30.02,WSW,248,12.7,12.7,86,0.00,BKN,,0.11,53.0,WeatherDisplay:10.37,2013-01-08 12:29:00,
2013-01-08 12:35:00,48.4,44.4,30.02,SW,236,19.6,19.6,86,0.00,BKN,,0.11,47.0,WeatherDisplay:10.37,2013-01-08 12:35:00,
2013-01-08 12:40:00,48.3,44.3,30.02,West,260,6.9,6.9,86,0.00,BKN,,0.11,53.0,WeatherDisplay:10.37,2013-01-08 12:40:00,
2013-01-08 12:45:00,48.2,44.2,30.03,WSW,244,10.4,10.4,86,0.00,BKN,,0.11,63.0,WeatherDisplay:10.37,2013-01-08 12:45:00,
2013-01-08 12:50:00,48.1,44.1,30.03,SW,230,11.5,11.5,86,0.00,BKN,,0.11,70.0,WeatherDisplay:10.37,2013-01-08 12:50:00,
2013-01-08 12:55:00,48.0,44.0,30.03,WSW,245,11.5,11.5,86,0.00,BKN,,0.11,69.0,WeatherDisplay:10.37,2013-01-08 12:55:00,
2013-01-08 13:00:00,48.0,44.0,30.03,SW,232,17.3,17.3,86,0.00,BKN,,0.11,62.0,WeatherDisplay:10.37,2013-01-08 13:00:00,
2013-01-08 13:05:00,48.0,44.0,30.03,WSW,250,11.5,11.5,86,0.00,BKN,,0.11,53.0,WeatherDisplay:10.37,2013-01-08 13:05:00,
2013-01-08 13:10:00,48.0,44.0,30.03,WSW,253,17.3,17.3,86,0.00,BKN,,0.11,49.0,WeatherDisplay:10.37,2013-01-08 13:10:00,
2013-01-08 13:15:00,48.0,44.0,30.03,WSW,253,11.5,11.5,86,0.00,BKN,,0.11,46.0,WeatherDisplay:10.37,2013-01-08 13:15:00,
2013-01-08 13:20:00,48.0,43.7,30.03,WSW,241,12.7,12.7,85,0.00,BKN,,0.11,60.0,WeatherDisplay:10.37,2013-01-08 13:20:00,
2013-01-08 13:25:00,48.0,43.7,30.03,WSW,239,12.7,12.7,85,0.00,BKN,,0.11,46.0,WeatherDisplay:10.37,2013-01-08 13:25:00,
2013-01-08 13:30:00,48.0,43.7,30.04,WSW,246,11.5,11.5,85,0.00,BKN,,0.11,51.0,WeatherDisplay:10.37,2013-01-08 13:30:00,
2013-01-08 13:35:00,48.0,43.4,30.04,West,268,11.5,11.5,84,0.00,BKN,,0.11,42.0,WeatherDisplay:10.37,2013-01-08 13:35:00,
2013-01-08 13:40:00,48.0,43.4,30.04,WSW,241,11.5,11.5,84,0.00,BKN,,0.11,35.0,WeatherDisplay:10.37,2013-01-08 13:40:00,
2013-01-08 13:45:00,47.9,43.6,30.05,WSW,238,12.7,12.7,85,0.00,BKN,,0.11,49.0,WeatherDisplay:10.37,2013-01-08 13:45:00,
2013-01-08 13:50:00,47.9,43.6,30.05,WSW,238,10.4,10.4,85,0.00,BKN,,0.11,53.0,WeatherDisplay:10.37,2013-01-08 13:50:00,
2013-01-08 13:55:00,47.8,43.5,30.05,WSW,245,17.3,17.3,85,0.00,BKN,,0.11,33.0,WeatherDisplay:10.37,2013-01-08 13:55:00,
2013-01-08 14:00:00,47.8,43.5,30.05,WSW,241,4.0,4.0,85,0.00,BKN,,0.11,25.0,WeatherDisplay:10.37,2013-01-08 14:00:00,
2013-01-08 14:05:00,47.8,43.5,30.05,WSW,246,13.8,13.8,85,0.00,BKN,,0.11,21.0,WeatherDisplay:10.37,2013-01-08 14:05:00,
2013-01-08 14:10:00,47.7,43.4,30.05,WSW,244,13.0,13.0,85,0.00,BKN,,0.11,26.0,WeatherDisplay:10.37,2013-01-08 14:10:00,
2013-01-08 14:15:00,47.7,43.4,30.05,WSW,247,10.4,10.4,85,0.00,BKN,,0.11,30.0,WeatherDisplay:10.37,2013-01-08 14:15:00,
2013-01-08 14:20:00,47.7,43.4,30.05,SW,227,8.1,8.1,85,0.00,BKN,,0.11,21.0,WeatherDisplay:10.37,2013-01-08 14:20:00,
2013-01-08 14:25:00,47.7,43.4,30.05,WSW,252,13.8,13.8,85,0.00,BKN,,0.11,23.0,WeatherDisplay:10.37,2013-01-08 14:25:00,
2013-01-08 14:30:00,47.6,43.0,30.05,SW,229,10.4,10.4,84,0.00,BKN,,0.11,23.0,WeatherDisplay:10.37,2013-01-08 14:30:00,
2013-01-08 14:35:00,47.6,43.0,30.05,WSW,245,11.0,11.0,84,0.00,BKN,,0.11,28.0,WeatherDisplay:10.37,2013-01-08 14:35:00,
2013-01-08 14:40:00,47.5,42.9,30.05,WSW,248,11.5,11.5,84,0.00,BKN,,0.11,30.0,WeatherDisplay:10.37,2013-01-08 14:40:00,
2013-01-08 14:45:00,47.4,42.8,30.06,WSW,250,13.8,13.8,84,0.00,BKN,,0.11,32.0,WeatherDisplay:10.37,2013-01-08 14:45:00,
2013-01-08 14:50:00,47.3,42.7,30.06,WSW,256,13.8,13.8,84,0.00,BKN,,0.11,39.0,WeatherDisplay:10.37,2013-01-08 14:50:00,
2013-01-08 14:55:00,47.3,43.0,30.05,WSW,252,11.5,11.5,85,0.00,BKN,,0.11,30.0,WeatherDisplay:10.37,2013-01-08 14:55:00,
2013-01-08 15:00:00,47.2,42.9,30.06,SW,232,5.8,5.8,85,0.00,BKN,,0.11,25.0,WeatherDisplay:10.37,2013-01-08 15:00:00,
2013-01-08 15:05:00,47.1,42.5,30.06,West,260,6.9,6.9,84,0.00,SCT,,0.11,32.0,WeatherDisplay:10.37,2013-01-08 15:05:00,
2013-01-08 15:10:00,47.0,42.7,30.06,WSW,240,4.6,4.6,85,0.00,SCT,,0.11,32.0,WeatherDisplay:10.37,2013-01-08 15:10:00,
2013-01-08 15:15:00,46.9,42.3,30.06,West,259,6.9,6.9,84,0.00,BKN,,0.11,21.0,WeatherDisplay:10.37,2013-01-08 15:15:00,
2013-01-08 15:20:00,46.8,42.2,30.06,WSW,242,4.6,4.6,84,0.00,BKN,,0.11,18.0,WeatherDisplay:10.37,2013-01-08 15:20:00,
2013-01-08 15:25:00,46.6,42.0,30.06,WSW,242,5.8,5.8,84,0.00,BKN,,0.11,12.0,WeatherDisplay:10.37,2013-01-08 15:25:00,
2013-01-08 15:30:00,46.4,41.8,30.07,SW,236,9.0,9.0,84,0.00,BKN,,0.11,14.0,WeatherDisplay:10.37,2013-01-08 15:30:00,
2013-01-08 15:35:00,46.3,41.7,30.06,WSW,242,6.9,6.9,84,0.00,BKN,,0.11,12.0,WeatherDisplay:10.37,2013-01-08 15:35:00,
2013-01-08 15:40:00,46.2,41.6,30.07,SW,236,5.8,5.8,84,0.00,BKN,,0.11,9.0,WeatherDisplay:10.37,2013-01-08 15:40:00,
2013-01-08 15:45:00,46.1,41.5,30.07,WSW,242,9.2,9.2,84,0.00,BKN,,0.11,9.0,WeatherDisplay:10.37,2013-01-08 15:45:00,
2013-01-08 15:50:00,46.0,41.4,30.06,WSW,245,10.4,10.4,84,0.00,SCT,,0.11,7.0,WeatherDisplay:10.37,2013-01-08 15:50:00,
2013-01-08 15:55:00,45.9,41.3,30.07,WSW,241,11.5,11.5,84,0.00,SCT,,0.11,5.0,WeatherDisplay:10.37,2013-01-08 15:55:00,
2013-01-08 16:00:00,45.8,41.2,30.07,West,259,10.4,10.4,84,0.00,CLR,,0.11,5.0,WeatherDisplay:10.37,2013-01-08 16:00:00,
2013-01-08 16:05:00,45.7,41.1,30.06,WSW,247,11.5,11.5,84,0.00,OVC,,0.11,0.0,WeatherDisplay:10.37,2013-01-08 16:05:00,
2013-01-08 16:10:00,45.6,41.0,30.07,SW,225,16.1,16.1,84,0.00,OVC,,0.11,0.0,WeatherDisplay:10.37,2013-01-08 16:10:00,
2013-01-08 16:15:00,45.5,40.9,30.07,WSW,240,15.0,15.0,84,0.00,OVC,,0.11,0.0,WeatherDisplay:10.37,2013-01-08 16:15:00,
2013-01-08 16:20:00,45.5,40.9,30.07,SW,226,15.0,15.0,84,0.00,OVC,,0.11,0.0,WeatherDisplay:10.37,2013-01-08 16:20:00,
2013-01-08 16:25:00,45.6,41.0,30.07,WSW,252,11.5,11.5,84,0.00,OVC,,0.11,0.0,WeatherDisplay:10.37,2013-01-08 16:25:00,
2013-01-08 16:30:00,45.6,41.0,30.08,WSW,248,15.0,15.0,84,0.00,OVC,,0.11,0.0,WeatherDisplay:10.37,2013-01-08 16:30:00,
2013-01-08 16:35:00,45.5,40.9,30.08,WSW,248,12.7,12.7,84,0.00,CLR,,0.11,0.0,WeatherDisplay:10.37,2013-01-08 16:35:00,
2013-01-08 16:40:00,45.5,40.9,30.08,WSW,254,12.7,12.7,84,0.00,CLR,,0.11,0.0,WeatherDisplay:10.37,2013-01-08 16:40:00,
2013-01-08 16:45:00,45.3,40.7,30.08,SW,234,11.5,11.5,84,0.00,CLR,,0.11,0.0,WeatherDisplay:10.37,2013-01-08 16:45:00,
2013-01-08 16:50:00,45.2,40.7,30.08,SW,236,12.7,12.7,84,0.00,CLR,,0.11,0.0,WeatherDisplay:10.37,2013-01-08 16:50:00,
2013-01-08 16:55:00,45.1,40.6,30.08,SW,228,9.2,9.2,84,0.00,CLR,,0.11,0.0,WeatherDisplay:10.37,2013-01-08 16:55:00,
2013-01-08 17:00:00,45.0,40.5,30.08,WSW,238,13.8,13.8,84,0.00,CLR,,0.11,0.0,WeatherDisplay:10.37,2013-01-08 17:00:00,
2013-01-08 17:05:00,44.9,40.4,30.08,WSW,246,11.5,11.5,84,0.00,CLR,,0.11,0.0,WeatherDisplay:10.37,2013-01-08 17:05:00,
2013-01-08 17:10:00,44.7,40.2,30.08,WSW,246,9.2,9.2,84,0.00,CLR,,0.11,0.0,WeatherDisplay:10.37,2013-01-08 17:10:00,
2013-01-08 17:15:00,44.6,40.1,30.08,WSW,238,8.1,8.1,84,0.00,CLR,,0.11,0.0,WeatherDisplay:10.37,2013-01-08 17:15:00,
2013-01-08 17:20:00,44.4,39.9,30.09,SW,227,10.4,10.4,84,0.00,CLR,,0.11,0.0,WeatherDisplay:10.37,2013-01-08 17:20:00,
2013-01-08 17:25:00,44.3,40.1,30.09,WSW,238,12.7,12.7,85,0.00,CLR,,0.11,0.0,WeatherDisplay:10.37,2013-01-08 17:25:00,
2013-01-08 17:30:00,44.3,40.1,30.09,WSW,251,11.5,11.5,85,0.00,CLR,,0.11,0.0,WeatherDisplay:10.37,2013-01-08 17:30:00,
2013-01-08 17:35:00,44.3,40.1,30.09,WSW,244,10.4,10.4,85,0.00,CLR,,0.11,0.0,WeatherDisplay:10.37,2013-01-08 17:35:00,
2013-01-08 17:40:00,44.3,40.1,30.09,WSW,244,12.7,12.7,85,0.00,CLR,,0.11,0.0,WeatherDisplay:10.37,2013-01-08 17:40:00,
2013-01-08 17:45:00,44.2,40.0,30.09,WSW,238,13.0,13.0,85,0.00,CLR,,0.11,0.0,WeatherDisplay:10.37,2013-01-08 17:45:00,
2013-01-08 17:50:00,44.2,40.0,30.09,SW,225,9.2,9.2,85,0.00,CLR,,0.11,0.0,WeatherDisplay:10.37,2013-01-08 17:50:00,
2013-01-08 17:56:00,44.1,39.9,30.09,SW,223,5.8,5.8,85,0.00,CLR,,0.11,0.0,WeatherDisplay:10.37,2013-01-08 17:56:00,
2013-01-08 18:01:00,44.0,39.8,30.09,SW,222,8.1,8.1,85,0.00,CLR,,0.11,0.0,WeatherDisplay:10.37,2013-01-08 18:01:00,
2013-01-08 18:06:00,43.9,39.7,30.10,SSW,200,6.9,6.9,85,0.00,CLR,,0.11,0.0,WeatherDisplay:10.37,2013-01-08 18:06:00,
2013-01-08 18:11:00,43.7,39.5,30.10,SSW,196,6.9,6.9,85,0.00,CLR,,0.11,0.0,WeatherDisplay:10.37,2013-01-08 18:11:00,
2013-01-08 18:16:00,43.6,39.4,30.10,WSW,239,9.2,9.2,85,0.00,CLR,,0.11,0.0,WeatherDisplay:10.37,2013-01-08 18:16:00,
2013-01-08 18:21:00,43.5,39.3,30.10,SW,232,4.6,5.2,85,0.00,CLR,,0.11,0.0,WeatherDisplay:10.37,2013-01-08 18:21:00,
2013-01-08 18:26:00,43.5,39.3,30.10,WSW,240,9.0,9.0,85,0.00,CLR,,0.11,0.0,WeatherDisplay:10.37,2013-01-08 18:26:00,
2013-01-08 18:31:00,43.5,39.3,30.10,SW,236,11.5,11.5,85,0.00,CLR,,0.11,0.0,WeatherDisplay:10.37,2013-01-08 18:31:00,
2013-01-08 18:36:00,43.5,39.6,30.10,SW,218,7.0,7.0,86,0.00,CLR,,0.11,0.0,WeatherDisplay:10.37,2013-01-08 18:36:00,
2013-01-08 18:41:00,43.6,39.7,30.10,WSW,246,9.2,9.2,86,0.00,CLR,,0.11,0.0,WeatherDisplay:10.37,2013-01-08 18:41:00,
2013-01-08 18:46:00,43.6,39.7,30.10,SW,234,11.5,11.5,86,0.00,CLR,,0.11,0.0,WeatherDisplay:10.37,2013-01-08 18:46:00,
2013-01-08 18:51:00,43.7,39.8,30.10,WSW,237,9.2,9.2,86,0.00,CLR,,0.11,0.0,WeatherDisplay:10.37,2013-01-08 18:51:00,
2013-01-08 18:56:00,43.8,39.6,30.10,WSW,237,13.8,13.8,85,0.00,CLR,,0.11,0.0,WeatherDisplay:10.37,2013-01-08 18:56:00,
2013-01-08 19:01:00,43.8,39.6,30.10,SW,234,10.4,10.4,85,0.00,CLR,,0.11,0.0,WeatherDisplay:10.37,2013-01-08 19:01:00,
2013-01-08 19:06:00,43.9,39.7,30.10,WSW,245,10.4,10.4,85,0.00,CLR,,0.11,0.0,WeatherDisplay:10.37,2013-01-08 19:06:00,
2013-01-08 19:11:00,43.8,39.6,30.10,WSW,244,9.2,9.2,85,0.00,CLR,,0.11,0.0,WeatherDisplay:10.37,2013-01-08 19:11:00,
2013-01-08 19:16:00,43.9,39.7,30.10,WSW,239,13.8,13.8,85,0.00,CLR,,0.11,0.0,WeatherDisplay:10.37,2013-01-08 19:16:00,
2013-01-08 19:21:00,43.8,39.6,30.10,SW,233,11.5,11.5,85,0.00,CLR,,0.11,0.0,WeatherDisplay:10.37,2013-01-08 19:21:00,
2013-01-08 19:26:00,43.8,39.6,30.10,West,279,11.5,11.5,85,0.00,CLR,,0.11,0.0,WeatherDisplay:10.37,2013-01-08 19:26:00,
2013-01-08 19:31:00,43.7,39.5,30.10,WSW,240,11.5,11.5,85,0.00,CLR,,0.11,0.0,WeatherDisplay:10.37,2013-01-08 19:31:00,
2013-01-08 19:36:00,43.6,39.4,30.10,SW,236,11.5,11.5,85,0.00,CLR,,0.11,0.0,WeatherDisplay:10.37,2013-01-08 19:36:00,
2013-01-08 19:41:00,43.5,39.3,30.10,SW,227,6.9,6.9,85,0.00,CLR,,0.11,0.0,WeatherDisplay:10.37,2013-01-08 19:41:00,
2013-01-08 19:46:00,43.5,39.3,30.11,SW,232,11.5,11.5,85,0.00,CLR,,0.11,0.0,WeatherDisplay:10.37,2013-01-08 19:46:00,
2013-01-08 19:51:00,43.4,39.2,30.11,SW,229,9.0,9.0,85,0.00,CLR,,0.11,0.0,WeatherDisplay:10.37,2013-01-08 19:51:00,
2013-01-08 19:56:00,43.3,39.1,30.11,SW,219,11.5,11.5,85,0.00,CLR,,0.11,0.0,WeatherDisplay:10.37,2013-01-08 19:56:00,
2013-01-08 20:01:00,43.3,39.1,30.11,WSW,251,11.5,11.5,85,0.00,CLR,,0.11,0.0,WeatherDisplay:10.37,2013-01-08 20:01:00,
2013-01-08 20:06:00,43.4,39.5,30.11,SW,231,10.4,10.4,86,0.00,CLR,,0.11,0.0,WeatherDisplay:10.37,2013-01-08 20:06:00,
2013-01-08 20:11:00,43.5,39.6,30.11,WSW,241,12.0,12.0,86,0.00,CLR,,0.11,0.0,WeatherDisplay:10.37,2013-01-08 20:11:00,
2013-01-08 20:16:00,43.6,39.7,30.11,WSW,250,13.8,13.8,86,0.00,CLR,,0.11,0.0,WeatherDisplay:10.37,2013-01-08 20:16:00,
2013-01-08 20:21:00,43.6,39.7,30.11,WSW,251,16.1,16.1,86,0.00,CLR,,0.11,0.0,WeatherDisplay:10.37,2013-01-08 20:21:00,
2013-01-08 20:26:00,43.5,39.6,30.11,West,259,12.7,12.7,86,0.00,CLR,,0.11,0.0,WeatherDisplay:10.37,2013-01-08 20:26:00,
2013-01-08 20:31:00,43.4,39.5,30.12,SW,215,11.5,11.5,86,0.00,CLR,,0.11,0.0,WeatherDisplay:10.37,2013-01-08 20:31:00,
2013-01-08 20:36:00,43.3,39.4,30.12,SW,233,12.7,12.7,86,0.00,CLR,,0.11,0.0,WeatherDisplay:10.37,2013-01-08 20:36:00,
2013-01-08 20:41:00,43.3,39.4,30.12,SSW,213,10.4,10.4,86,0.00,CLR,,0.11,0.0,WeatherDisplay:10.37,2013-01-08 20:41:00,
2013-01-08 20:46:00,43.3,39.4,30.12,WSW,237,7.0,7.0,86,0.00,CLR,,0.11,0.0,WeatherDisplay:10.37,2013-01-08 20:46:00,
2013-01-08 20:51:00,43.3,39.4,30.12,SW,231,14.0,14.0,86,0.00,CLR,,0.11,0.0,WeatherDisplay:10.37,2013-01-08 20:51:00,
2013-01-08 20:56:00,43.4,39.5,30.12,SW,227,6.0,6.0,86,0.00,CLR,,0.11,0.0,WeatherDisplay:10.37,2013-01-08 20:56:00,
2013-01-08 21:01:00,43.5,39.6,30.12,WSW,254,6.9,6.9,86,0.00,CLR,,0.11,0.0,WeatherDisplay:10.37,2013-01-08 21:01:00,
2013-01-08 21:06:00,43.5,39.6,30.12,SW,235,8.1,8.1,86,0.00,CLR,,0.11,0.0,WeatherDisplay:10.37,2013-01-08 21:06:00,
2013-01-08 21:11:00,43.5,39.6,30.12,WSW,239,8.0,8.0,86,0.00,CLR,,0.11,0.0,WeatherDisplay:10.37,2013-01-08 21:11:00,
2013-01-08 21:16:00,43.5,39.9,30.13,SW,236,4.6,4.6,87,0.00,CLR,,0.11,0.0,WeatherDisplay:10.37,2013-01-08 21:16:00,
2013-01-08 21:21:00,43.5,39.9,30.13,WSW,245,6.9,6.9,87,0.00,CLR,,0.11,0.0,WeatherDisplay:10.37,2013-01-08 21:21:00,
2013-01-08 21:26:00,43.4,39.8,30.13,WSW,242,14.0,14.0,87,0.01,RA,,0.12,0.0,WeatherDisplay:10.37,2013-01-08 21:26:00,
2013-01-08 21:31:00,43.4,40.1,30.13,SW,233,5.8,5.8,88,0.01,RA,,0.12,0.0,WeatherDisplay:10.37,2013-01-08 21:31:00,
2013-01-08 21:36:00,43.3,40.3,30.13,WSW,238,9.2,9.2,89,0.02,RA,,0.13,0.0,WeatherDisplay:10.37,2013-01-08 21:36:00,
2013-01-08 21:41:00,43.3,40.3,30.13,WSW,251,6.9,6.9,89,0.02,RA,,0.13,0.0,WeatherDisplay:10.37,2013-01-08 21:41:00,
2013-01-08 21:46:00,43.1,40.1,30.13,SW,232,5.8,5.8,89,0.02,CLR,,0.13,0.0,WeatherDisplay:10.37,2013-01-08 21:46:00,
2013-01-08 21:51:00,42.9,39.9,30.13,WSW,238,11.0,11.0,89,0.02,CLR,,0.13,0.0,WeatherDisplay:10.37,2013-01-08 21:51:00,
2013-01-08 21:56:00,42.8,39.5,30.13,SW,225,10.4,10.4,88,0.02,CLR,,0.13,0.0,WeatherDisplay:10.37,2013-01-08 21:56:00,
2013-01-08 22:01:00,42.6,39.3,30.12,SW,226,11.5,11.5,88,0.02,CLR,,0.13,0.0,WeatherDisplay:10.37,2013-01-08 22:01:00,
2013-01-08 22:06:00,42.5,39.2,30.13,SW,229,10.0,10.0,88,0.02,CLR,,0.13,0.0,WeatherDisplay:10.37,2013-01-08 22:06:00,
2013-01-08 22:11:00,42.3,39.0,30.13,SW,233,6.9,6.9,88,0.02,CLR,,0.13,0.0,WeatherDisplay:10.37,2013-01-08 22:11:00,
2013-01-08 22:16:00,42.2,38.9,30.13,SW,221,8.1,8.1,88,0.02,CLR,,0.13,0.0,WeatherDisplay:10.37,2013-01-08 22:16:00,
2013-01-08 22:21:00,42.1,38.8,30.13,SW,223,5.8,5.8,88,0.02,CLR,,0.13,0.0,WeatherDisplay:10.37,2013-01-08 22:21:00,
2013-01-08 22:26:00,42.0,38.7,30.14,WSW,241,9.2,9.2,88,0.01,CLR,,0.13,0.0,WeatherDisplay:10.37,2013-01-08 22:26:00,
2013-01-08 22:31:00,42.0,38.7,30.14,SW,236,9.2,9.2,88,0.01,CLR,,0.13,0.0,WeatherDisplay:10.37,2013-01-08 22:31:00,
2013-01-08 22:36:00,41.9,38.6,30.14,SW,231,6.0,6.0,88,0.00,CLR,,0.13,0.0,WeatherDisplay:10.37,2013-01-08 22:36:00,
2013-01-08 22:41:00,41.9,38.9,30.14,WSW,249,10.0,10.0,89,0.00,CLR,,0.13,0.0,WeatherDisplay:10.37,2013-01-08 22:41:00,
2013-01-08 22:46:00,41.9,38.9,30.14,WSW,241,11.0,11.0,89,0.00,CLR,,0.13,0.0,WeatherDisplay:10.37,2013-01-08 22:46:00,
2013-01-08 22:51:00,42.0,39.0,30.13,WSW,248,11.5,11.5,89,0.00,CLR,,0.13,0.0,WeatherDisplay:10.37,2013-01-08 22:51:00,
2013-01-08 22:56:00,42.1,38.8,30.13,SW,223,13.0,13.0,88,0.00,CLR,,0.13,0.0,WeatherDisplay:10.37,2013-01-08 22:56:00,
2013-01-08 23:01:00,42.1,38.8,30.13,WSW,250,11.5,11.5,88,0.00,CLR,,0.13,0.0,WeatherDisplay:10.37,2013-01-08 23:01:00,
2013-01-08 23:06:00,42.1,38.8,30.13,SW,229,10.0,10.0,88,0.00,CLR,,0.13,0.0,WeatherDisplay:10.37,2013-01-08 23:06:00,
2013-01-08 23:11:00,42.1,38.8,30.13,SW,234,11.5,11.5,88,0.00,CLR,,0.13,0.0,WeatherDisplay:10.37,2013-01-08 23:11:00,
2013-01-08 23:16:00,42.0,38.7,30.14,WSW,244,11.5,11.5,88,0.00,CLR,,0.13,0.0,WeatherDisplay:10.37,2013-01-08 23:16:00,
2013-01-08 23:21:00,41.9,38.6,30.14,WSW,242,6.9,6.9,88,0.00,CLR,,0.13,0.0,WeatherDisplay:10.37,2013-01-08 23:21:00,
2013-01-08 23:26:00,41.9,38.9,30.13,SW,225,13.8,13.8,89,0.00,CLR,,0.13,0.0,WeatherDisplay:10.37,2013-01-08 23:26:00,
2013-01-08 23:32:00,41.8,38.8,30.14,West,260,10.4,10.4,89,0.00,CLR,,0.13,0.0,WeatherDisplay:10.37,2013-01-08 23:32:00,
2013-01-08 23:37:00,41.8,38.5,30.13,WSW,242,9.2,9.2,88,0.00,CLR,,0.13,0.0,WeatherDisplay:10.37,2013-01-08 23:37:00,
2013-01-08 23:42:00,41.7,38.4,30.13,SW,234,10.4,10.4,88,0.00,CLR,,0.13,0.0,WeatherDisplay:10.37,2013-01-08 23:42:00,
2013-01-08 23:47:00,41.7,38.4,30.13,SW,214,11.0,11.0,88,0.00,CLR,,0.13,0.0,WeatherDisplay:10.37,2013-01-08 23:47:00,
2013-01-08 23:52:00,41.6,38.3,30.13,SW,232,9.2,9.2,88,0.00,CLR,,0.13,0.0,WeatherDisplay:10.37,2013-01-08 23:52:00,
2013-01-08 23:57:00,41.5,38.2,30.13,WSW,250,7.0,7.0,88,0.00,CLR,,0.13,0.0,WeatherDisplay:10.37,2013-01-08 23:57:00,